Time;durP1;ratioP1;P1;durP2;ratioP2;P2;SDS_P1;SDS_P2;PMS_P1;PMS_P2;Temp;Humidity;BMP_temperature;BMP_pressure;BME280_temperature;BME280_humidity;BME280_pressure;Samples;Min_cycle;Max_cycle;Signal;HPM_P1;HPM_P2
2022/12/23 00:03:00;;;;;;;13.05;4.80;;;;;;;-144.32;100.00;68061.97;10297945;28;20059;-82
2022/12/23 00:08:01;;;;;;;19.00;5.45;;;;;;;-144.32;100.00;68061.97;10308451;28;20046;-84
2022/12/23 00:18:21;;;;;;;15.60;4.93;;;;;;;-144.32;100.00;68061.97;10302123;28;20193;-81
2022/12/23 00:23:21;;;;;;;13.52;4.50;;;;;;;-144.32;100.00;68061.97;10255331;28;1116515;-83
2022/12/23 00:28:24;;;;;;;12.43;4.40;;;;;;;-144.32;100.00;68061.97;10292222;28;20063;-83
2022/12/23 00:33:36;;;;;;;16.30;4.80;;;;;;;-144.32;100.00;68061.97;10290793;28;20046;-83
2022/12/23 00:43:56;;;;;;;12.98;4.55;;;;;;;-144.32;100.00;68061.97;10318040;28;20046;-80
2022/12/23 00:54:17;;;;;;;15.88;5.30;;;;;;;-144.32;100.00;68061.97;10296496;28;20047;-84
2022/12/23 00:59:18;;;;;;;16.40;5.05;;;;;;;-144.32;100.00;68061.97;10297873;28;20050;-81
2022/12/23 01:09:38;;;;;;;11.20;5.05;;;;;;;-144.32;100.00;68061.97;10322963;28;20065;-82
2022/12/23 01:14:40;;;;;;;15.20;5.70;;;;;;;-144.32;100.00;68061.97;10347730;28;20070;-80
2022/12/23 01:19:40;;;;;;;14.13;5.93;;;;;;;-144.32;100.00;68061.97;10345845;28;20392;-81
2022/12/23 01:24:41;;;;;;;13.32;4.95;;;;;;;-144.32;100.00;68061.97;10324141;28;20156;-83
2022/12/23 01:29:41;;;;;;;17.13;5.35;;;;;;;-144.32;100.00;68061.97;10305279;28;20046;-84
2022/12/23 01:34:42;;;;;;;18.55;6.03;;;;;;;-144.32;100.00;68061.97;10312261;28;20059;-84
2022/12/23 01:39:42;;;;;;;19.20;6.28;;;;;;;-144.32;100.00;68061.97;10318445;28;20484;-82
2022/12/23 01:44:59;;;;;;;15.15;5.68;;;;;;;-144.32;100.00;68061.97;10329118;28;20047;-83
2022/12/23 01:50:06;;;;;;;24.95;5.57;;;;;;;-144.32;100.00;68061.97;10309643;28;20057;-85
2022/12/23 01:55:08;;;;;;;16.85;6.32;;;;;;;-144.32;100.00;68061.97;10340795;28;20054;-85
2022/12/23 02:05:28;;;;;;;13.70;7.10;;;;;;;-144.32;100.00;68061.97;10338833;28;20022;-78
2022/12/23 02:10:59;;;;;;;18.90;6.60;;;;;;;-144.32;100.00;68061.97;10347661;28;20062;-80
2022/12/23 02:16:16;;;;;;;18.85;6.70;;;;;;;-144.32;100.00;68061.97;10317675;28;20051;-81
2022/12/23 02:21:38;;;;;;;21.73;8.35;;;;;;;-144.32;100.00;68061.97;10324616;28;20492;-79
2022/12/23 02:26:50;;;;;;;15.10;7.70;;;;;;;-144.32;100.00;68061.97;10296612;28;20077;-81
2022/12/23 02:32:01;;;;;;;20.33;7.22;;;;;;;-144.32;100.00;68061.97;10331654;28;20039;-80
2022/12/23 02:37:18;;;;;;;19.30;7.35;;;;;;;-144.32;100.00;68061.97;10330011;28;20046;-78
2022/12/23 02:42:37;;;;;;;16.67;6.50;;;;;;;-144.32;100.00;68061.97;10330663;28;20039;-79
2022/12/23 02:47:51;;;;;;;18.90;7.25;;;;;;;-144.32;100.00;68061.97;10334525;28;20113;-81
2022/12/23 02:52:56;;;;;;;20.65;6.93;;;;;;;-144.32;100.00;68061.97;10343709;28;20077;-85
2022/12/23 02:58:01;;;;;;;13.48;7.25;;;;;;;-144.32;100.00;68061.97;10286592;28;20088;-83
2022/12/23 03:03:02;;;;;;;16.17;7.18;;;;;;;-144.32;100.00;68061.97;10295666;28;20601;-85
2022/12/23 03:08:06;;;;;;;22.40;8.50;;;;;;;-144.32;100.00;68061.97;10311225;28;20038;-84
2022/12/23 03:13:29;;;;;;;16.63;8.25;;;;;;;-144.32;100.00;68061.97;10336142;28;20042;-85
2022/12/23 03:18:33;;;;;;;19.65;7.93;;;;;;;-144.32;100.00;68061.97;10295944;28;20039;-85
2022/12/23 03:23:49;;;;;;;18.90;8.50;;;;;;;-144.32;100.00;68061.97;10307778;28;20042;-84
2022/12/23 03:28:59;;;;;;;17.67;7.20;;;;;;;-144.32;100.00;68061.97;10294957;28;20046;-85
2022/12/23 03:34:04;;;;;;;16.38;8.82;;;;;;;-144.32;100.00;68061.97;10318336;28;20042;-78
2022/12/23 03:39:12;;;;;;;16.80;8.23;;;;;;;-144.32;100.00;68061.97;10344636;28;20023;-78
2022/12/23 03:44:31;;;;;;;17.10;8.07;;;;;;;-144.32;100.00;68061.97;10346116;28;20062;-80
2022/12/23 03:49:38;;;;;;;15.57;7.57;;;;;;;-144.32;100.00;68061.97;10331522;28;20064;-79
2022/12/23 03:54:51;;;;;;;21.17;9.32;;;;;;;-144.32;100.00;68061.97;10337207;28;20034;-80
2022/12/23 03:59:52;;;;;;;21.70;7.80;;;;;;;-144.32;100.00;68061.97;10346818;28;20039;-84
2022/12/23 04:05:31;;;;;;;14.48;6.97;;;;;;;-144.32;100.00;68061.97;10331940;28;20050;-84
2022/12/23 04:10:33;;;;;;;18.38;7.82;;;;;;;-144.32;100.00;68061.97;10294815;28;20057;-85
2022/12/23 04:15:39;;;;;;;20.80;8.93;;;;;;;-144.32;100.00;68061.97;10287516;28;20049;-86
2022/12/23 04:20:39;;;;;;;20.90;9.85;;;;;;;-144.32;100.00;68061.97;10304013;28;20042;-84
2022/12/23 04:25:41;;;;;;;16.98;9.10;;;;;;;-144.32;100.00;68061.97;10302301;28;20042;-85
2022/12/23 04:30:42;;;;;;;18.05;9.15;;;;;;;-144.32;100.00;68061.97;10299464;28;20047;-83
2022/12/23 04:35:42;;;;;;;20.58;9.43;;;;;;;-144.32;100.00;68061.97;10294339;28;20047;-82
2022/12/23 04:40:46;;;;;;;18.70;9.93;;;;;;;-144.32;100.00;68061.97;10327024;28;20062;-81
2022/12/23 04:45:51;;;;;;;17.58;9.82;;;;;;;-144.32;100.00;68061.97;10336060;28;20038;-82
2022/12/23 04:50:52;;;;;;;24.15;11.20;;;;;;;-144.32;100.00;68061.97;10297762;28;20050;-80
2022/12/23 04:55:52;;;;;;;27.33;10.93;;;;;;;-144.32;100.00;68061.97;10298717;28;20031;-82
2022/12/23 05:01:20;;;;;;;20.23;9.75;;;;;;;-144.32;100.00;68061.97;10302920;28;20130;-82
2022/12/23 05:06:23;;;;;;;19.67;9.48;;;;;;;-144.32;100.00;68061.97;10311869;28;20043;-80
2022/12/23 05:11:24;;;;;;;18.60;9.02;;;;;;;-144.32;100.00;68061.97;10350387;28;20047;-83
2022/12/23 05:16:27;;;;;;;16.88;7.75;;;;;;;-144.32;100.00;68061.97;10358617;28;20061;-79
2022/12/23 05:21:28;;;;;;;;;;;;;;;-144.32;100.00;68061.97;10362681;28;20034;-79
2022/12/23 05:26:29;;;;;;;17.47;7.43;;;;;;;-144.32;100.00;68061.97;10364407;28;19917;-81
2022/12/23 05:31:29;;;;;;;16.27;9.15;;;;;;;-144.32;100.00;68061.97;10356579;28;20369;-80
2022/12/23 05:36:30;;;;;;;11.77;7.32;;;;;;;-144.32;100.00;68061.97;10329958;28;20043;-84
2022/12/23 05:41:30;;;;;;;10.88;7.25;;;;;;;-144.32;100.00;68061.97;10290623;28;20086;-82
2022/12/23 05:46:31;;;;;;;12.35;7.20;;;;;;;-144.32;100.00;68061.97;10316025;28;20074;-83
2022/12/23 05:51:31;;;;;;;10.65;6.35;;;;;;;-144.32;100.00;68061.97;10316790;28;20117;-83
2022/12/23 05:56:32;;;;;;;13.15;7.13;;;;;;;-144.32;100.00;68061.97;10308909;28;20039;-82
2022/12/23 06:01:32;;;;;;;6.97;4.93;;;;;;;-144.32;100.00;68061.97;10342660;28;20125;-80
2022/12/23 06:06:33;;;;;;;8.05;5.40;;;;;;;-144.32;100.00;68061.97;10339954;28;20043;-82
2022/12/23 06:11:33;;;;;;;8.95;5.65;;;;;;;-144.32;100.00;68061.97;10350397;28;20086;-84
2022/12/23 06:16:34;;;;;;;8.02;4.55;;;;;;;-144.32;100.00;68061.97;10314882;28;20038;-83
2022/12/23 06:21:37;;;;;;;5.90;4.40;;;;;;;-144.32;100.00;68061.97;10375690;23;20043;-81
2022/12/23 06:26:37;;;;;;;5.55;4.18;;;;;;;-144.32;100.00;68061.97;10368050;28;20078;-82
2022/12/23 06:31:39;;;;;;;6.85;3.70;;;;;;;-144.32;100.00;68061.97;10362604;28;20077;-78
2022/12/23 06:36:41;;;;;;;5.13;4.10;;;;;;;-144.32;100.00;68061.97;10331689;28;20105;-84
2022/12/23 06:41:42;;;;;;;7.38;5.45;;;;;;;-144.32;100.00;68061.97;10333418;28;20491;-84
2022/12/23 06:46:42;;;;;;;3.40;2.70;;;;;;;-144.32;100.00;68061.97;10363463;28;20035;-80
2022/12/23 06:51:43;;;;;;;4.07;3.17;;;;;;;-144.32;100.00;68061.97;10343583;28;20066;-84
2022/12/23 06:56:43;;;;;;;4.57;3.90;;;;;;;-144.32;100.00;68061.97;10337307;28;20046;-84
2022/12/23 07:01:44;;;;;;;4.68;2.97;;;;;;;-144.32;100.00;68061.97;10330375;28;20049;-85
2022/12/23 07:06:45;;;;;;;3.58;3.10;;;;;;;-144.32;100.00;68061.97;10355282;28;20038;-82
2022/12/23 07:11:45;;;;;;;2.75;2.53;;;;;;;-144.32;100.00;68061.97;10355734;28;20034;-82
2022/12/23 07:16:46;;;;;;;3.83;2.72;;;;;;;-144.32;100.00;68061.97;10382574;28;20023;-79
2022/12/23 07:21:46;;;;;;;3.85;2.92;;;;;;;-144.32;100.00;68061.97;10333701;28;20046;-78
2022/12/23 07:26:47;;;;;;;3.78;2.85;;;;;;;-144.32;100.00;68061.97;10333450;28;20430;-78
2022/12/23 07:31:47;;;;;;;3.30;2.95;;;;;;;-144.32;100.00;68061.97;10331646;28;20831;-78
2022/12/23 07:36:48;;;;;;;4.05;2.60;;;;;;;-144.32;100.00;68061.97;10332850;28;20053;-78
2022/12/23 07:41:48;;;;;;;3.97;3.00;;;;;;;-144.32;100.00;68061.97;10351645;28;20065;-79
2022/12/23 07:46:49;;;;;;;3.72;3.13;;;;;;;-144.32;100.00;68061.97;10328250;28;20046;-79
2022/12/23 07:51:50;;;;;;;4.05;2.60;;;;;;;-144.32;100.00;68061.97;10321146;28;20545;-77
2022/12/23 07:56:50;;;;;;;5.00;3.45;;;;;;;-144.32;100.00;68061.97;10314853;28;20102;-78
2022/12/23 08:01:51;;;;;;;4.93;3.03;;;;;;;-144.32;100.00;68061.97;10329960;28;20355;-77
2022/12/23 08:06:51;;;;;;;4.35;3.13;;;;;;;-144.32;100.00;68061.97;10334221;28;20148;-81
2022/12/23 08:11:52;;;;;;;5.72;4.00;;;;;;;-144.32;100.00;68061.97;10324406;28;20486;-81
2022/12/23 08:16:52;;;;;;;5.70;3.67;;;;;;;-144.32;100.00;68061.97;10321283;28;20121;-79
2022/12/23 08:21:53;;;;;;;6.10;2.92;;;;;;;-144.32;100.00;68061.97;10345167;28;20047;-80
2022/12/23 08:26:53;;;;;;;2.15;1.92;;;;;;;-144.32;100.00;68061.97;10371832;28;20034;-81
2022/12/23 08:31:54;;;;;;;6.32;4.00;;;;;;;-144.32;100.00;68061.97;10363474;28;20053;-80
2022/12/23 08:36:55;;;;;;;3.05;2.55;;;;;;;-144.32;100.00;68061.97;10338664;28;20042;-81
2022/12/23 08:41:55;;;;;;;2.30;1.75;;;;;;;-144.32;100.00;68061.97;10330728;28;20490;-81
2022/12/23 08:46:57;;;;;;;2.00;1.48;;;;;;;-144.32;100.00;68061.97;10325549;28;20084;-77
2022/12/23 08:51:58;;;;;;;2.33;1.45;;;;;;;-144.32;100.00;68061.97;10328311;28;20081;-77
2022/12/23 08:57:00;;;;;;;1.98;1.55;;;;;;;-144.32;100.00;68061.97;10306328;28;20510;-77
2022/12/23 09:02:02;;;;;;;4.55;3.08;;;;;;;-144.32;100.00;68061.97;10308615;28;20142;-79
2022/12/23 09:07:03;;;;;;;7.30;3.90;;;;;;;-144.32;100.00;68061.97;10309925;28;20046;-77
2022/12/23 09:12:03;;;;;;;2.47;1.58;;;;;;;-144.32;100.00;68061.97;10302264;28;20592;-80
2022/12/23 09:17:04;;;;;;;2.47;1.88;;;;;;;-144.32;100.00;68061.97;10302092;28;20042;-79
2022/12/23 09:22:04;;;;;;;3.15;2.00;;;;;;;-144.32;100.00;68061.97;10318517;28;20133;-81
2022/12/23 09:27:05;;;;;;;2.35;1.85;;;;;;;-144.32;100.00;68061.97;10315953;28;20047;-80
2022/12/23 09:32:05;;;;;;;3.40;2.13;;;;;;;-144.32;100.00;68061.97;10325774;28;20046;-80
2022/12/23 09:37:06;;;;;;;2.20;2.00;;;;;;;-144.32;100.00;68061.97;10332681;28;20399;-78
2022/12/23 09:42:37;;;;;;;2.90;2.00;;;;;;;-144.32;100.00;68061.97;10310807;28;20057;-80
2022/12/23 09:47:40;;;;;;;3.85;2.25;;;;;;;-144.32;100.00;68061.97;10345160;28;20066;-79
2022/12/23 09:53:02;;;;;;;3.17;2.33;;;;;;;-144.32;100.00;68061.97;10371026;28;20394;-79
2022/12/23 09:58:15;;;;;;;3.83;2.38;;;;;;;-144.32;100.00;68061.97;10335903;28;20047;-78
2022/12/23 10:03:24;;;;;;;2.88;2.38;;;;;;;-144.32;100.00;68061.97;10325052;28;20054;-82
2022/12/23 10:08:36;;;;;;;4.65;3.15;;;;;;;-144.32;100.00;68061.97;10326471;28;20057;-81
2022/12/23 10:13:46;;;;;;;4.87;3.40;;;;;;;-144.32;100.00;68061.97;10322875;28;20039;-80
2022/12/23 10:19:00;;;;;;;5.10;3.28;;;;;;;-144.32;100.00;68061.97;10320154;28;20053;-79
2022/12/23 10:24:11;;;;;;;5.22;3.53;;;;;;;-144.32;100.00;68061.97;10331575;28;20033;-80
2022/12/23 10:29:24;;;;;;;6.45;4.82;;;;;;;-144.32;100.00;68061.97;10369873;28;20097;-73
2022/12/23 10:34:43;;;;;;;6.60;4.40;;;;;;;-144.32;100.00;68061.97;10324651;28;20459;-79
2022/12/23 10:40:02;;;;;;;7.30;5.65;;;;;;;-144.32;100.00;68061.97;10323251;28;20117;-78
2022/12/23 10:45:26;;;;;;;9.23;6.45;;;;;;;-144.32;100.00;68061.97;10356303;28;20054;-80
2022/12/23 10:50:32;;;;;;;;;;;;;;;-144.32;100.00;68061.97;10368652;28;20022;-83
2022/12/23 10:55:39;;;;;;;7.28;5.70;;;;;;;-144.32;100.00;68061.97;10360602;28;19926;-82
2022/12/23 11:00:50;;;;;;;6.95;5.55;;;;;;;-144.32;100.00;68061.97;10310460;28;20053;-82
2022/12/23 11:05:56;;;;;;;8.27;5.47;;;;;;;-144.32;100.00;68061.97;10315720;28;20050;-83
2022/12/23 11:10:59;;;;;;;9.07;5.90;;;;;;;-144.32;100.00;68061.97;10376815;28;20054;-81
2022/12/23 11:16:17;;;;;;;7.75;5.60;;;;;;;-144.32;100.00;68061.97;10384355;28;20062;-82
2022/12/23 11:21:19;;;;;;;10.15;6.15;;;;;;;-144.32;100.00;68061.97;10362345;28;20061;-82
2022/12/23 11:26:32;;;;;;;7.95;6.40;;;;;;;-144.32;100.00;68061.97;10384294;28;20061;-83
2022/12/23 11:31:42;;;;;;;9.38;6.72;;;;;;;-144.32;100.00;68061.97;10370093;28;20060;-81
2022/12/23 11:37:05;;;;;;;10.05;6.97;;;;;;;-144.32;100.00;68061.97;10357802;28;20112;-80
2022/12/23 11:42:18;;;;;;;13.63;7.47;;;;;;;-144.32;100.00;68061.97;10360453;28;20056;-83
2022/12/23 11:47:21;;;;;;;9.88;7.15;;;;;;;-144.32;100.00;68061.97;10376840;28;20048;-82
2022/12/23 11:52:26;;;;;;;9.70;6.97;;;;;;;-144.32;100.00;68061.97;10378408;28;20493;-81
2022/12/23 11:57:38;;;;;;;8.38;6.82;;;;;;;-144.32;100.00;68061.97;10374718;28;20040;-80
2022/12/23 12:02:46;;;;;;;10.05;7.15;;;;;;;-144.32;100.00;68061.97;10362809;28;20061;-81
2022/12/23 12:07:50;;;;;;;10.77;7.40;;;;;;;-144.32;100.00;68061.97;10355090;28;20801;-81
2022/12/23 12:12:55;;;;;;;10.98;7.72;;;;;;;-144.32;100.00;68061.97;10355904;28;20069;-81
2022/12/23 12:17:56;;;;;;;10.77;8.60;;;;;;;-144.32;100.00;68061.97;10368976;28;20470;-81
2022/12/23 12:23:17;;;;;;;10.73;9.15;;;;;;;-144.32;100.00;68061.97;10358189;28;20046;-82
2022/12/23 12:28:26;;;;;;;9.38;7.75;;;;;;;-144.32;100.00;68061.97;10350733;28;20112;-81
2022/12/23 12:33:53;;;;;;;11.13;8.90;;;;;;;-144.32;100.00;68061.97;10347634;28;20061;-80
2022/12/23 12:38:57;;;;;;;11.43;8.68;;;;;;;-144.32;100.00;68061.97;10336027;28;20081;-80
2022/12/23 12:44:35;;;;;;;11.05;7.85;;;;;;;-144.32;100.00;68061.97;10375097;28;20053;-82
2022/12/23 12:50:02;;;;;;;9.38;8.13;;;;;;;-144.32;100.00;68061.97;10370267;28;20046;-80
2022/12/23 12:55:31;;;;;;;11.95;8.10;;;;;;;-144.32;100.00;68061.97;10343970;28;20046;-81
2022/12/23 13:01:01;;;;;;;10.35;8.75;;;;;;;-144.32;100.00;68061.97;10355459;28;20137;-81
2022/12/23 13:06:14;;;;;;;10.80;8.50;;;;;;;-144.32;100.00;68061.97;10372432;28;20077;-81
2022/12/23 13:12:03;;;;;;;12.15;9.73;;;;;;;-144.32;100.00;68061.97;10402488;28;20048;-79
2022/12/23 13:17:20;;;;;;;7.60;4.90;;;;;;;-144.32;100.00;68061.97;10347240;28;20137;-80
2022/12/23 13:22:33;;;;;;;5.18;4.22;;;;;;;-144.32;100.00;68061.97;10361725;28;20073;-80
2022/12/23 13:27:46;;;;;;;6.45;4.55;;;;;;;-144.32;100.00;68061.97;10361311;28;20417;-80
2022/12/23 13:33:06;;;;;;;7.25;4.57;;;;;;;-144.32;100.00;68061.97;10366390;28;20042;-79
2022/12/23 13:38:33;;;;;;;6.38;4.78;;;;;;;-144.32;100.00;68061.97;10361048;28;20101;-78
2022/12/23 13:43:59;;;;;;;5.30;4.75;;;;;;;-144.32;100.00;68061.97;10367754;28;20057;-79
2022/12/23 13:49:34;;;;;;;9.02;5.97;;;;;;;-144.32;100.00;68061.97;10383526;28;20057;-79
2022/12/23 13:55:00;;;;;;;8.05;6.00;;;;;;;-144.32;100.00;68061.97;10387090;28;20034;-79
2022/12/23 14:00:17;;;;;;;9.48;6.07;;;;;;;-144.32;100.00;68061.97;10381923;28;20133;-79
2022/12/23 14:05:51;;;;;;;10.68;7.07;;;;;;;-144.32;100.00;68061.97;10371661;28;20158;-79
2022/12/23 14:10:53;;;;;;;13.07;8.63;;;;;;;-144.32;100.00;68061.97;10369327;28;20075;-79
2022/12/23 14:16:03;;;;;;;12.90;9.88;;;;;;;-144.32;100.00;68061.97;10366598;28;20049;-80
2022/12/23 14:21:28;;;;;;;12.73;9.50;;;;;;;-144.32;100.00;68061.97;10356620;28;20038;-80
2022/12/23 14:26:50;;;;;;;15.35;10.70;;;;;;;-144.32;100.00;68061.97;10355086;28;20050;-81
2022/12/23 14:31:57;;;;;;;15.20;10.88;;;;;;;-144.32;100.00;68061.97;10352569;28;20045;-80
2022/12/23 14:37:19;;;;;;;14.00;10.60;;;;;;;-144.32;100.00;68061.97;10353412;28;20046;-80
2022/12/23 14:42:40;;;;;;;18.23;11.07;;;;;;;-144.32;100.00;68061.97;10354419;28;20054;-81
2022/12/23 14:47:50;;;;;;;18.75;11.70;;;;;;;-144.32;100.00;68061.97;10356639;28;20077;-81
2022/12/23 14:52:58;;;;;;;15.48;10.85;;;;;;;-144.32;100.00;68061.97;10354740;28;20110;-82
2022/12/23 14:58:31;;;;;;;15.95;10.75;;;;;;;-144.32;100.00;68061.97;10363453;28;20041;-81
2022/12/23 15:03:48;;;;;;;16.88;11.52;;;;;;;-144.32;100.00;68061.97;10336931;28;20068;-80
2022/12/23 15:08:51;;;;;;;14.30;10.77;;;;;;;-144.32;100.00;68061.97;10401877;28;20034;-78
2022/12/23 15:13:52;;;;;;;12.38;9.82;;;;;;;-144.32;100.00;68061.97;10407596;28;20042;-76
2022/12/23 15:19:01;;;;;;;15.60;9.88;;;;;;;-144.32;100.00;68061.97;10388060;28;20038;-75
2022/12/23 15:24:01;;;;;;;20.98;11.90;;;;;;;-144.32;100.00;68061.97;10364186;28;20061;-78
2022/12/23 15:29:06;;;;;;;16.80;10.93;;;;;;;-144.32;100.00;68061.97;10341868;28;20065;-77
2022/12/23 15:34:16;;;;;;;16.13;11.20;;;;;;;-144.32;100.00;68061.97;10337208;28;20034;-78
2022/12/23 15:39:20;;;;;;;14.90;10.07;;;;;;;-144.32;100.00;68061.97;10354078;28;20509;-77
2022/12/23 15:44:23;;;;;;;17.67;11.55;;;;;;;-144.32;100.00;68061.97;10357203;28;20048;-79
2022/12/23 15:49:24;;;;;;;20.20;12.50;;;;;;;-144.32;100.00;68061.97;10366030;28;20071;-77
2022/12/23 15:54:35;;;;;;;18.25;11.88;;;;;;;-144.32;100.00;68061.97;10347956;28;20046;-77
2022/12/23 15:59:37;;;;;;;18.30;12.02;;;;;;;-144.32;100.00;68061.97;10324264;28;20045;-78
2022/12/23 16:04:38;;;;;;;22.90;14.50;;;;;;;-144.32;100.00;68061.97;10347497;28;20045;-77
2022/12/23 16:09:38;;;;;;;20.10;12.27;;;;;;;-144.32;100.00;68061.97;10341693;28;20046;-75
2022/12/23 16:14:40;;;;;;;19.20;12.27;;;;;;;-144.32;100.00;68061.97;10342957;28;20426;-77
2022/12/23 16:19:46;;;;;;;17.77;12.52;;;;;;;-144.32;100.00;68061.97;10345217;28;20037;-77
2022/12/23 16:24:56;;;;;;;19.23;12.25;;;;;;;-144.32;100.00;68061.97;10347907;28;20571;-76
2022/12/23 16:30:01;;;;;;;21.40;12.75;;;;;;;-144.32;100.00;68061.97;10347029;28;20038;-79
2022/12/23 16:35:10;;;;;;;22.30;12.85;;;;;;;-144.32;100.00;68061.97;10349499;28;20038;-78
2022/12/23 16:40:13;;;;;;;25.20;15.70;;;;;;;-144.32;100.00;68061.97;10345807;28;20042;-78
2022/12/23 16:45:16;;;;;;;21.75;14.63;;;;;;;-144.32;100.00;68061.97;10355619;28;20065;-76
2022/12/23 16:50:17;;;;;;;22.15;14.70;;;;;;;-144.32;100.00;68061.97;10345192;28;20051;-78
2022/12/23 16:55:20;;;;;;;22.63;13.57;;;;;;;-144.32;100.00;68061.97;10331744;28;20096;-76
2022/12/23 17:00:22;;;;;;;19.40;13.00;;;;;;;-144.32;100.00;68061.97;10362967;28;20387;-76
2022/12/23 17:05:25;;;;;;;23.70;14.98;;;;;;;-144.32;100.00;68061.97;10358341;28;20038;-77
2022/12/23 17:10:26;;;;;;;23.65;13.88;;;;;;;-144.32;100.00;68061.97;10345858;28;20053;-76
2022/12/23 17:15:26;;;;;;;22.27;13.50;;;;;;;-144.32;100.00;68061.97;10363872;28;20049;-77
2022/12/23 17:20:27;;;;;;;19.88;12.10;;;;;;;-144.32;100.00;68061.97;10357615;28;20055;-76
2022/12/23 17:25:28;;;;;;;15.02;11.55;;;;;;;-144.32;100.00;68061.97;10357396;28;20078;-77
2022/12/23 17:30:28;;;;;;;18.10;9.30;;;;;;;-144.32;100.00;68061.97;10417513;28;20046;-79
2022/12/23 17:35:29;;;;;;;13.65;8.75;;;;;;;-144.32;100.00;68061.97;10370934;28;20041;-78
2022/12/23 17:40:29;;;;;;;19.10;12.80;;;;;;;-144.32;100.00;68061.97;10348177;28;20133;-77
2022/12/23 17:45:30;;;;;;;8.35;5.80;;;;;;;-144.32;100.00;68061.97;10364997;28;20158;-76
2022/12/23 17:50:34;;;;;;;8.30;5.57;;;;;;;-144.32;100.00;68061.97;10362802;28;20058;-79
2022/12/23 17:55:35;;;;;;;7.20;5.05;;;;;;;-144.32;100.00;68061.97;10372772;28;20057;-76
2022/12/23 18:00:39;;;;;;;7.68;4.85;;;;;;;-144.32;100.00;68061.97;10358593;28;20509;-77
2022/12/23 18:05:40;;;;;;;4.78;3.00;;;;;;;-144.32;100.00;68061.97;10363796;28;20835;-77
2022/12/23 18:10:41;;;;;;;3.63;2.42;;;;;;;-144.32;100.00;68061.97;10373632;28;20038;-76
2022/12/23 18:15:43;;;;;;;3.65;2.42;;;;;;;-144.32;100.00;68061.97;10375896;28;20050;-78
2022/12/23 18:20:46;;;;;;;2.72;2.20;;;;;;;-144.32;100.00;68061.97;10378334;28;20449;-78
2022/12/23 18:25:46;;;;;;;;;;;;;;;-144.32;100.00;68061.97;10367857;28;20129;-79
2022/12/23 18:30:47;;;;;;;4.30;2.38;;;;;;;-144.32;100.00;68061.97;10370632;28;19922;-78
2022/12/23 18:35:48;;;;;;;3.53;2.28;;;;;;;-144.32;100.00;68061.97;10380031;28;20096;-77
2022/12/23 18:40:52;;;;;;;3.75;1.90;;;;;;;-144.32;100.00;68061.97;10383482;28;20042;-77
2022/12/23 18:45:53;;;;;;;2.28;2.08;;;;;;;-144.32;100.00;68061.97;10367461;28;20041;-76
2022/12/23 18:50:53;;;;;;;2.97;1.50;;;;;;;-144.32;100.00;68061.97;10370003;28;20494;-76
2022/12/23 18:55:54;;;;;;;1.90;1.20;;;;;;;-144.32;100.00;68061.97;10355785;28;20037;-78
2022/12/23 19:00:55;;;;;;;2.60;1.67;;;;;;;-144.32;100.00;68061.97;10366192;28;20042;-79
2022/12/23 19:06:05;;;;;;;1.60;1.50;;;;;;;-144.32;100.00;68061.97;10364883;28;20394;-77
2022/12/23 19:11:17;;;;;;;1.85;1.50;;;;;;;-144.32;100.00;68061.97;10368596;28;20046;-76
2022/12/23 19:16:19;;;;;;;1.80;1.48;;;;;;;-144.32;100.00;68061.97;10369356;28;20038;-78
2022/12/23 19:21:19;;;;;;;2.58;1.45;;;;;;;-144.32;100.00;68061.97;10369956;28;20034;-78
2022/12/23 19:26:20;;;;;;;2.25;1.50;;;;;;;-144.32;100.00;68061.97;10370205;28;20060;-77
2022/12/23 19:31:21;;;;;;;2.33;1.40;;;;;;;-144.32;100.00;68061.97;10363006;28;20764;-76
2022/12/23 19:36:23;;;;;;;0.90;0.90;;;;;;;-144.32;100.00;68061.97;10366075;28;20081;-76
2022/12/23 19:41:27;;;;;;;1.70;1.40;;;;;;;-144.32;100.00;68061.97;10378953;28;20061;-78
2022/12/23 19:46:28;;;;;;;;;;;;;;;-144.32;100.00;68061.97;10344442;28;20049;-80
2022/12/23 19:51:29;;;;;;;1.63;1.30;;;;;;;-144.32;100.00;68061.97;10454354;28;19916;-79
2022/12/23 19:56:31;;;;;;;1.98;1.38;;;;;;;-144.32;100.00;68061.97;10381093;28;20050;-78
2022/12/23 20:01:37;;;;;;;2.33;1.20;;;;;;;-144.32;100.00;68061.97;10370148;28;20061;-79
2022/12/23 20:06:40;;;;;;;1.92;1.50;;;;;;;-144.32;100.00;68061.97;10365636;28;20042;-77
2022/12/23 20:11:44;;;;;;;2.28;1.80;;;;;;;-144.32;100.00;68061.97;10353949;28;20053;-77
2022/12/23 20:16:47;;;;;;;2.10;1.50;;;;;;;-144.32;100.00;68061.97;10350510;28;20041;-77
2022/12/23 20:21:48;;;;;;;2.80;1.67;;;;;;;-144.32;100.00;68061.97;10345266;28;20498;-77
2022/12/23 20:26:50;;;;;;;2.10;1.80;;;;;;;-144.32;100.00;68061.97;10347556;28;20128;-77
2022/12/23 20:31:51;;;;;;;3.85;2.08;;;;;;;-144.32;100.00;68061.97;10344379;28;20045;-79
2022/12/23 20:36:52;;;;;;;2.85;1.60;;;;;;;-144.32;100.00;68061.97;10349074;28;20038;-76
2022/12/23 20:41:52;;;;;;;3.63;2.17;;;;;;;-144.32;100.00;68061.97;10355561;28;20474;-77
2022/12/23 20:46:54;;;;;;;2.42;2.10;;;;;;;-144.32;100.00;68061.97;10361524;28;20057;-77
2022/12/23 20:51:56;;;;;;;2.42;2.03;;;;;;;-144.32;100.00;68061.97;10359555;28;20129;-78
2022/12/23 20:56:57;;;;;;;2.50;2.08;;;;;;;-144.32;100.00;68061.97;10367519;28;20056;-77
2022/12/23 21:01:59;;;;;;;2.28;1.67;;;;;;;-144.32;100.00;68061.97;10357083;28;20504;-78
2022/12/23 21:07:00;;;;;;;2.50;1.63;;;;;;;-144.32;100.00;68061.97;10361458;28;20049;-78
2022/12/23 21:12:02;;;;;;;1.88;1.58;;;;;;;-144.32;100.00;68061.97;10356176;28;20041;-79
2022/12/23 21:17:03;;;;;;;2.30;1.30;;;;;;;-144.32;100.00;68061.97;10343807;28;20101;-76
2022/12/23 21:22:04;;;;;;;4.88;1.40;;;;;;;-144.32;100.00;68061.97;10353896;28;20576;-80
2022/12/23 21:27:05;;;;;;;2.88;1.35;;;;;;;-144.32;100.00;68061.97;10344679;28;20050;-77
2022/12/23 21:32:05;;;;;;;1.63;1.17;;;;;;;-144.32;100.00;68061.97;10354527;28;20153;-79
2022/12/23 21:37:07;;;;;;;1.73;1.20;;;;;;;-144.32;100.00;68061.97;10361839;28;20076;-76
2022/12/23 21:42:09;;;;;;;1.58;1.02;;;;;;;-144.32;100.00;68061.97;10360989;28;20410;-75
2022/12/23 21:47:09;;;;;;;2.22;0.90;;;;;;;-144.32;100.00;68061.97;10360161;28;20080;-78
2022/12/23 21:52:12;;;;;;;1.40;1.20;;;;;;;-144.32;100.00;68061.97;10358221;28;20081;-77
2022/12/23 21:57:14;;;;;;;1.70;1.02;;;;;;;-144.32;100.00;68061.97;10386586;28;20045;-75
2022/12/23 22:02:16;;;;;;;;;;;;;;;-144.32;100.00;68061.97;10375031;28;20112;-76
2022/12/23 22:07:18;;;;;;;1.45;0.80;;;;;;;-144.32;100.00;68061.97;10370922;28;19921;-77
2022/12/23 22:12:18;;;;;;;1.80;0.90;;;;;;;-144.32;100.00;68061.97;10383736;28;20494;-76
2022/12/23 22:17:19;;;;;;;1.88;1.00;;;;;;;-144.32;100.00;68061.97;10357775;28;20052;-77
2022/12/23 22:22:19;;;;;;;2.65;1.45;;;;;;;-144.32;100.00;68061.97;10359251;28;20159;-78
2022/12/23 22:27:21;;;;;;;2.47;1.00;;;;;;;-144.32;100.00;68061.97;10353786;28;20107;-76
2022/12/23 22:32:24;;;;;;;4.13;1.70;;;;;;;-144.32;100.00;68061.97;10345129;28;20050;-79
2022/12/23 22:37:27;;;;;;;2.67;0.90;;;;;;;-144.32;100.00;68061.97;10357757;28;20099;-77
2022/12/23 22:42:29;;;;;;;1.45;1.00;;;;;;;-144.32;100.00;68061.97;10348139;28;20103;-76
2022/12/23 22:47:31;;;;;;;3.83;1.10;;;;;;;-144.32;100.00;68061.97;10345010;28;20073;-78
2022/12/23 22:52:32;;;;;;;6.25;1.35;;;;;;;-144.32;100.00;68061.97;10342887;28;20073;-79
2022/12/23 22:57:33;;;;;;;3.22;1.30;;;;;;;-144.32;100.00;68061.97;10362945;28;20117;-78
2022/12/23 23:02:34;;;;;;;3.30;1.50;;;;;;;-144.32;100.00;68061.97;10353477;28;20049;-79
2022/12/23 23:07:37;;;;;;;3.22;1.30;;;;;;;-144.32;100.00;68061.97;10378705;28;20057;-79
2022/12/23 23:12:38;;;;;;;3.08;1.65;;;;;;;-144.32;100.00;68061.97;10378270;28;20057;-77